sensor_id;sensor_type;location;lat;lon;timestamp;temperature;humidity
52669;DHT22;59898;52.786;6.892;2022-11-21T00:03:18;1.60;99.90
52669;DHT22;59898;52.786;6.892;2022-11-21T00:06:39;1.80;99.90
52669;DHT22;59898;52.786;6.892;2022-11-21T00:10:00;2.90;99.90
52669;DHT22;59898;52.786;6.892;2022-11-21T00:13:20;2.60;99.90
52669;DHT22;59898;52.786;6.892;2022-11-21T00:16:41;2.80;99.90
52669;DHT22;59898;52.786;6.892;2022-11-21T00:20:02;2.00;99.90
52669;DHT22;59898;52.786;6.892;2022-11-21T00:23:22;1.90;99.90
52669;DHT22;59898;52.786;6.892;2022-11-21T00:26:47;1.90;99.90
52669;DHT22;59898;52.786;6.892;2022-11-21T00:30:09;1.80;99.90
52669;DHT22;59898;52.786;6.892;2022-11-21T00:33:31;1.90;99.90
52669;DHT22;59898;52.786;6.892;2022-11-21T00:36:51;1.90;99.90
52669;DHT22;59898;52.786;6.892;2022-11-21T00:40:12;1.90;99.90
52669;DHT22;59898;52.786;6.892;2022-11-21T00:43:33;1.90;99.90
52669;DHT22;59898;52.786;6.892;2022-11-21T00:46:54;1.90;99.90
52669;DHT22;59898;52.786;6.892;2022-11-21T00:50:14;1.80;99.90
52669;DHT22;59898;52.786;6.892;2022-11-21T00:53:35;3.10;99.90
52669;DHT22;59898;52.786;6.892;2022-11-21T00:56:56;2.00;99.90
52669;DHT22;59898;52.786;6.892;2022-11-21T01:00:17;1.90;99.90
52669;DHT22;59898;52.786;6.892;2022-11-21T01:03:38;2.00;99.90
52669;DHT22;59898;52.786;6.892;2022-11-21T01:06:59;1.80;99.90
52669;DHT22;59898;52.786;6.892;2022-11-21T01:10:20;1.80;99.90
52669;DHT22;59898;52.786;6.892;2022-11-21T01:13:41;2.00;99.90
52669;DHT22;59898;52.786;6.892;2022-11-21T01:17:02;1.80;99.90
52669;DHT22;59898;52.786;6.892;2022-11-21T01:20:22;1.80;99.90
52669;DHT22;59898;52.786;6.892;2022-11-21T01:23:43;2.30;99.90
52669;DHT22;59898;52.786;6.892;2022-11-21T01:27:04;2.40;99.90
52669;DHT22;59898;52.786;6.892;2022-11-21T01:30:25;2.30;99.90
52669;DHT22;59898;52.786;6.892;2022-11-21T01:33:46;1.90;99.90
52669;DHT22;59898;52.786;6.892;2022-11-21T01:37:06;1.90;99.90
52669;DHT22;59898;52.786;6.892;2022-11-21T01:40:27;1.80;99.90
52669;DHT22;59898;52.786;6.892;2022-11-21T01:43:48;1.60;99.90
52669;DHT22;59898;52.786;6.892;2022-11-21T01:47:09;1.80;99.90
52669;DHT22;59898;52.786;6.892;2022-11-21T01:50:30;1.70;99.90
52669;DHT22;59898;52.786;6.892;2022-11-21T01:57:45;1.70;99.90
52669;DHT22;59898;52.786;6.892;2022-11-21T02:01:07;2.20;99.90
52669;DHT22;59898;52.786;6.892;2022-11-21T02:04:30;1.60;99.90
52669;DHT22;59898;52.786;6.892;2022-11-21T02:07:53;1.90;99.90
52669;DHT22;59898;52.786;6.892;2022-11-21T02:11:38;1.80;99.90
52669;DHT22;59898;52.786;6.892;2022-11-21T02:15:00;1.70;99.90
52669;DHT22;59898;52.786;6.892;2022-11-21T02:18:21;1.70;99.90
52669;DHT22;59898;52.786;6.892;2022-11-21T02:21:58;1.60;99.90
52669;DHT22;59898;52.786;6.892;2022-11-21T02:25:24;1.80;99.90
52669;DHT22;59898;52.786;6.892;2022-11-21T02:28:46;2.00;99.90
52669;DHT22;59898;52.786;6.892;2022-11-21T02:32:06;1.80;99.90
52669;DHT22;59898;52.786;6.892;2022-11-21T02:35:27;1.80;99.90
52669;DHT22;59898;52.786;6.892;2022-11-21T02:38:48;2.80;99.90
52669;DHT22;59898;52.786;6.892;2022-11-21T02:42:20;2.70;99.90
52669;DHT22;59898;52.786;6.892;2022-11-21T02:45:44;1.70;99.90
52669;DHT22;59898;52.786;6.892;2022-11-21T02:49:06;2.30;99.90
52669;DHT22;59898;52.786;6.892;2022-11-21T02:52:28;1.60;99.90
52669;DHT22;59898;52.786;6.892;2022-11-21T02:55:49;1.50;99.90
52669;DHT22;59898;52.786;6.892;2022-11-21T02:59:10;2.10;99.90
52669;DHT22;59898;52.786;6.892;2022-11-21T03:02:30;2.10;99.90
52669;DHT22;59898;52.786;6.892;2022-11-21T03:05:51;1.70;99.90
52669;DHT22;59898;52.786;6.892;2022-11-21T03:09:11;1.40;99.90
52669;DHT22;59898;52.786;6.892;2022-11-21T03:12:35;1.30;99.90
52669;DHT22;59898;52.786;6.892;2022-11-21T03:15:56;1.80;99.90
52669;DHT22;59898;52.786;6.892;2022-11-21T03:19:18;1.60;99.90
52669;DHT22;59898;52.786;6.892;2022-11-21T03:22:39;1.50;99.90
52669;DHT22;59898;52.786;6.892;2022-11-21T03:25:59;1.90;99.90
52669;DHT22;59898;52.786;6.892;2022-11-21T03:29:20;1.70;99.90
52669;DHT22;59898;52.786;6.892;2022-11-21T03:32:41;1.40;99.90
52669;DHT22;59898;52.786;6.892;2022-11-21T03:36:01;1.30;99.90
52669;DHT22;59898;52.786;6.892;2022-11-21T03:39:22;1.40;99.90
52669;DHT22;59898;52.786;6.892;2022-11-21T03:42:43;1.40;99.90
52669;DHT22;59898;52.786;6.892;2022-11-21T03:46:03;1.80;99.90
52669;DHT22;59898;52.786;6.892;2022-11-21T03:49:24;1.10;99.90
52669;DHT22;59898;52.786;6.892;2022-11-21T03:52:45;1.10;99.90
52669;DHT22;59898;52.786;6.892;2022-11-21T03:56:05;1.50;99.90
52669;DHT22;59898;52.786;6.892;2022-11-21T03:59:26;1.40;99.90
52669;DHT22;59898;52.786;6.892;2022-11-21T04:02:47;2.40;99.90
52669;DHT22;59898;52.786;6.892;2022-11-21T04:06:09;1.20;99.90
52669;DHT22;59898;52.786;6.892;2022-11-21T04:09:30;1.20;99.90
52669;DHT22;59898;52.786;6.892;2022-11-21T04:12:50;1.20;99.90
52669;DHT22;59898;52.786;6.892;2022-11-21T04:16:11;1.00;99.90
52669;DHT22;59898;52.786;6.892;2022-11-21T04:19:31;1.30;99.90
52669;DHT22;59898;52.786;6.892;2022-11-21T04:22:52;1.10;99.90
52669;DHT22;59898;52.786;6.892;2022-11-21T04:26:13;1.00;99.90
52669;DHT22;59898;52.786;6.892;2022-11-21T04:29:33;0.90;99.90
52669;DHT22;59898;52.786;6.892;2022-11-21T04:32:55;1.10;99.90
52669;DHT22;59898;52.786;6.892;2022-11-21T04:36:15;1.00;99.90
52669;DHT22;59898;52.786;6.892;2022-11-21T04:39:36;1.10;99.90
52669;DHT22;59898;52.786;6.892;2022-11-21T04:42:57;1.70;99.90
52669;DHT22;59898;52.786;6.892;2022-11-21T04:46:17;0.90;99.90
52669;DHT22;59898;52.786;6.892;2022-11-21T04:49:38;1.60;99.90
52669;DHT22;59898;52.786;6.892;2022-11-21T04:52:59;0.90;99.90
52669;DHT22;59898;52.786;6.892;2022-11-21T04:56:19;0.90;99.90
52669;DHT22;59898;52.786;6.892;2022-11-21T04:59:40;1.70;99.90
52669;DHT22;59898;52.786;6.892;2022-11-21T05:03:05;0.80;99.90
52669;DHT22;59898;52.786;6.892;2022-11-21T05:06:26;1.00;99.90
52669;DHT22;59898;52.786;6.892;2022-11-21T05:09:46;0.80;99.90
52669;DHT22;59898;52.786;6.892;2022-11-21T05:13:08;1.40;99.90
52669;DHT22;59898;52.786;6.892;2022-11-21T05:16:41;1.10;99.90
52669;DHT22;59898;52.786;6.892;2022-11-21T05:20:02;1.50;99.90
52669;DHT22;59898;52.786;6.892;2022-11-21T05:23:23;0.90;99.90
52669;DHT22;59898;52.786;6.892;2022-11-21T05:26:43;2.00;99.90
52669;DHT22;59898;52.786;6.892;2022-11-21T05:30:04;0.60;99.90
52669;DHT22;59898;52.786;6.892;2022-11-21T05:33:25;0.40;99.90
52669;DHT22;59898;52.786;6.892;2022-11-21T05:36:46;1.60;99.90
52669;DHT22;59898;52.786;6.892;2022-11-21T05:40:07;0.00;99.90
52669;DHT22;59898;52.786;6.892;2022-11-21T05:43:27;0.00;99.90
52669;DHT22;59898;52.786;6.892;2022-11-21T05:47:06;1.10;99.90
52669;DHT22;59898;52.786;6.892;2022-11-21T05:50:27;0.00;99.90
52669;DHT22;59898;52.786;6.892;2022-11-21T05:53:48;1.20;99.90
52669;DHT22;59898;52.786;6.892;2022-11-21T05:57:08;0.00;99.90
52669;DHT22;59898;52.786;6.892;2022-11-21T06:00:29;-0.60;99.90
52669;DHT22;59898;52.786;6.892;2022-11-21T06:03:50;0.00;99.90
52669;DHT22;59898;52.786;6.892;2022-11-21T06:07:10;0.90;99.90
52669;DHT22;59898;52.786;6.892;2022-11-21T06:10:31;0.20;99.90
52669;DHT22;59898;52.786;6.892;2022-11-21T06:13:52;1.20;99.90
52669;DHT22;59898;52.786;6.892;2022-11-21T06:17:13;0.20;99.90
52669;DHT22;59898;52.786;6.892;2022-11-21T06:20:33;1.60;99.90
52669;DHT22;59898;52.786;6.892;2022-11-21T06:23:57;0.10;99.90
52669;DHT22;59898;52.786;6.892;2022-11-21T06:27:18;0.20;99.90
52669;DHT22;59898;52.786;6.892;2022-11-21T06:30:39;2.40;99.90
52669;DHT22;59898;52.786;6.892;2022-11-21T06:33:59;0.50;99.90
52669;DHT22;59898;52.786;6.892;2022-11-21T06:37:20;0.70;99.90
52669;DHT22;59898;52.786;6.892;2022-11-21T06:40:40;0.10;99.90
52669;DHT22;59898;52.786;6.892;2022-11-21T06:44:01;0.30;99.90
52669;DHT22;59898;52.786;6.892;2022-11-21T06:47:22;1.20;99.90
52669;DHT22;59898;52.786;6.892;2022-11-21T06:50:43;0.50;99.90
52669;DHT22;59898;52.786;6.892;2022-11-21T06:54:03;0.80;99.90
52669;DHT22;59898;52.786;6.892;2022-11-21T06:57:24;0.40;99.90
52669;DHT22;59898;52.786;6.892;2022-11-21T07:00:45;0.50;99.90
52669;DHT22;59898;52.786;6.892;2022-11-21T07:04:08;-0.20;99.90
52669;DHT22;59898;52.786;6.892;2022-11-21T07:07:28;-0.30;99.90
52669;DHT22;59898;52.786;6.892;2022-11-21T07:10:49;-0.30;99.90
52669;DHT22;59898;52.786;6.892;2022-11-21T07:14:10;0.00;99.90
52669;DHT22;59898;52.786;6.892;2022-11-21T07:17:30;0.00;99.90
52669;DHT22;59898;52.786;6.892;2022-11-21T07:20:51;-0.20;99.90
52669;DHT22;59898;52.786;6.892;2022-11-21T07:24:12;0.10;99.90
52669;DHT22;59898;52.786;6.892;2022-11-21T07:27:32;0.70;99.90
52669;DHT22;59898;52.786;6.892;2022-11-21T07:30:55;-0.30;99.90
52669;DHT22;59898;52.786;6.892;2022-11-21T07:34:16;1.00;99.90
52669;DHT22;59898;52.786;6.892;2022-11-21T07:37:38;0.20;99.90
52669;DHT22;59898;52.786;6.892;2022-11-21T07:40:59;-0.40;99.90
52669;DHT22;59898;52.786;6.892;2022-11-21T07:44:19;-0.10;99.90
52669;DHT22;59898;52.786;6.892;2022-11-21T07:47:41;0.60;99.90
52669;DHT22;59898;52.786;6.892;2022-11-21T07:51:03;-0.40;99.90
52669;DHT22;59898;52.786;6.892;2022-11-21T07:54:24;-0.60;99.90
52669;DHT22;59898;52.786;6.892;2022-11-21T07:57:45;-0.10;99.90
52669;DHT22;59898;52.786;6.892;2022-11-21T08:01:06;0.70;99.90
52669;DHT22;59898;52.786;6.892;2022-11-21T08:04:27;0.00;99.90
52669;DHT22;59898;52.786;6.892;2022-11-21T08:07:48;0.50;99.90
52669;DHT22;59898;52.786;6.892;2022-11-21T08:11:08;0.80;99.90
52669;DHT22;59898;52.786;6.892;2022-11-21T08:14:29;-0.30;99.90
52669;DHT22;59898;52.786;6.892;2022-11-21T08:17:50;0.70;99.90
52669;DHT22;59898;52.786;6.892;2022-11-21T08:21:11;-0.10;99.90
52669;DHT22;59898;52.786;6.892;2022-11-21T08:24:31;1.00;99.90
52669;DHT22;59898;52.786;6.892;2022-11-21T08:27:55;0.10;99.90
52669;DHT22;59898;52.786;6.892;2022-11-21T08:31:16;1.90;99.90
52669;DHT22;59898;52.786;6.892;2022-11-21T08:34:37;0.80;99.90
52669;DHT22;59898;52.786;6.892;2022-11-21T08:37:58;1.20;99.90
52669;DHT22;59898;52.786;6.892;2022-11-21T08:41:19;2.00;99.90
52669;DHT22;59898;52.786;6.892;2022-11-21T08:44:59;3.20;99.90
52669;DHT22;59898;52.786;6.892;2022-11-21T08:48:19;3.60;99.90
52669;DHT22;59898;52.786;6.892;2022-11-21T08:51:40;4.50;99.90
52669;DHT22;59898;52.786;6.892;2022-11-21T08:55:01;6.20;99.90
52669;DHT22;59898;52.786;6.892;2022-11-21T08:58:21;5.50;99.90
52669;DHT22;59898;52.786;6.892;2022-11-21T09:01:42;6.50;99.90
52669;DHT22;59898;52.786;6.892;2022-11-21T09:05:03;7.10;99.90
52669;DHT22;59898;52.786;6.892;2022-11-21T09:08:25;8.00;99.90
52669;DHT22;59898;52.786;6.892;2022-11-21T09:11:45;8.70;99.90
52669;DHT22;59898;52.786;6.892;2022-11-21T09:15:08;8.80;99.90
52669;DHT22;59898;52.786;6.892;2022-11-21T09:18:47;8.50;99.90
52669;DHT22;59898;52.786;6.892;2022-11-21T09:22:10;8.50;99.90
52669;DHT22;59898;52.786;6.892;2022-11-21T09:25:31;8.80;99.90
52669;DHT22;59898;52.786;6.892;2022-11-21T09:28:53;9.60;99.90
52669;DHT22;59898;52.786;6.892;2022-11-21T09:32:13;9.50;99.90
52669;DHT22;59898;52.786;6.892;2022-11-21T09:35:34;9.30;99.90
52669;DHT22;59898;52.786;6.892;2022-11-21T09:38:55;7.80;99.90
52669;DHT22;59898;52.786;6.892;2022-11-21T09:42:24;6.80;99.90
52669;DHT22;59898;52.786;6.892;2022-11-21T09:45:57;5.70;99.90
52669;DHT22;59898;52.786;6.892;2022-11-21T09:49:21;4.80;99.90
52669;DHT22;59898;52.786;6.892;2022-11-21T09:56:14;3.50;99.90
52669;DHT22;59898;52.786;6.892;2022-11-21T09:59:39;3.10;99.90
52669;DHT22;59898;52.786;6.892;2022-11-21T10:03:00;3.00;99.90
52669;DHT22;59898;52.786;6.892;2022-11-21T10:06:23;3.00;99.90
52669;DHT22;59898;52.786;6.892;2022-11-21T10:17:21;2.10;99.90
52669;DHT22;59898;52.786;6.892;2022-11-21T10:35:47;1.70;99.90
52669;DHT22;59898;52.786;6.892;2022-11-21T10:39:34;1.90;99.90
52669;DHT22;59898;52.786;6.892;2022-11-21T10:43:05;1.60;99.90
52669;DHT22;59898;52.786;6.892;2022-11-21T10:46:56;1.70;99.90
52669;DHT22;59898;52.786;6.892;2022-11-21T10:50:45;1.60;99.90
52669;DHT22;59898;52.786;6.892;2022-11-21T10:54:10;1.80;99.90
52669;DHT22;59898;52.786;6.892;2022-11-21T10:57:51;1.80;99.90
52669;DHT22;59898;52.786;6.892;2022-11-21T11:01:46;2.00;99.90
52669;DHT22;59898;52.786;6.892;2022-11-21T11:05:27;2.10;99.90
52669;DHT22;59898;52.786;6.892;2022-11-21T11:08:50;2.20;99.90
52669;DHT22;59898;52.786;6.892;2022-11-21T11:12:27;2.30;99.90
52669;DHT22;59898;52.786;6.892;2022-11-21T11:19:31;2.50;99.90
52669;DHT22;59898;52.786;6.892;2022-11-21T11:22:51;2.80;99.90
52669;DHT22;59898;52.786;6.892;2022-11-21T11:29:49;3.00;99.90
52669;DHT22;59898;52.786;6.892;2022-11-21T11:37:10;3.00;99.90
52669;DHT22;59898;52.786;6.892;2022-11-21T11:40:40;3.70;99.90
52669;DHT22;59898;52.786;6.892;2022-11-21T11:44:14;3.10;99.90
52669;DHT22;59898;52.786;6.892;2022-11-21T11:48:07;3.00;99.90
52669;DHT22;59898;52.786;6.892;2022-11-21T11:51:35;2.80;99.90
52669;DHT22;59898;52.786;6.892;2022-11-21T11:55:05;2.80;99.90
52669;DHT22;59898;52.786;6.892;2022-11-21T12:13:10;2.70;99.90
52669;DHT22;59898;52.786;6.892;2022-11-21T12:16:34;2.90;99.90
52669;DHT22;59898;52.786;6.892;2022-11-21T12:19:56;3.00;99.90
52669;DHT22;59898;52.786;6.892;2022-11-21T12:23:19;3.20;99.90
52669;DHT22;59898;52.786;6.892;2022-11-21T12:46:06;3.10;99.90
52669;DHT22;59898;52.786;6.892;2022-11-21T12:49:29;3.80;99.90
52669;DHT22;59898;52.786;6.892;2022-11-21T12:53:40;3.30;99.90
52669;DHT22;59898;52.786;6.892;2022-11-21T12:57:17;3.30;99.90
52669;DHT22;59898;52.786;6.892;2022-11-21T13:04:43;3.50;99.90
52669;DHT22;59898;52.786;6.892;2022-11-21T13:15:28;3.30;99.90
52669;DHT22;59898;52.786;6.892;2022-11-21T13:18:50;3.60;99.90
52669;DHT22;59898;52.786;6.892;2022-11-21T13:25:54;3.10;99.90
52669;DHT22;59898;52.786;6.892;2022-11-21T13:29:15;3.20;99.90
52669;DHT22;59898;52.786;6.892;2022-11-21T13:32:40;3.20;99.90
52669;DHT22;59898;52.786;6.892;2022-11-21T13:36:06;3.10;99.90
52669;DHT22;59898;52.786;6.892;2022-11-21T13:39:30;3.80;99.90
52669;DHT22;59898;52.786;6.892;2022-11-21T14:06:34;3.00;99.90
52669;DHT22;59898;52.786;6.892;2022-11-21T14:10:02;3.30;99.90
52669;DHT22;59898;52.786;6.892;2022-11-21T14:13:33;3.00;99.90
52669;DHT22;59898;52.786;6.892;2022-11-21T14:20:52;2.90;99.90
52669;DHT22;59898;52.786;6.892;2022-11-21T14:24:17;3.00;99.90
52669;DHT22;59898;52.786;6.892;2022-11-21T14:27:40;3.20;99.90
52669;DHT22;59898;52.786;6.892;2022-11-21T14:31:09;2.90;99.90
52669;DHT22;59898;52.786;6.892;2022-11-21T14:34:31;3.60;99.90
52669;DHT22;59898;52.786;6.892;2022-11-21T14:37:52;2.90;99.90
52669;DHT22;59898;52.786;6.892;2022-11-21T14:41:17;2.90;99.90
52669;DHT22;59898;52.786;6.892;2022-11-21T14:44:42;3.00;99.90
52669;DHT22;59898;52.786;6.892;2022-11-21T14:48:10;3.60;99.90
52669;DHT22;59898;52.786;6.892;2022-11-21T14:51:31;2.90;99.90
52669;DHT22;59898;52.786;6.892;2022-11-21T14:54:54;2.90;99.90
52669;DHT22;59898;52.786;6.892;2022-11-21T14:58:16;2.90;99.90
52669;DHT22;59898;52.786;6.892;2022-11-21T15:01:37;2.80;99.90
52669;DHT22;59898;52.786;6.892;2022-11-21T15:05:05;2.60;99.90
52669;DHT22;59898;52.786;6.892;2022-11-21T15:08:27;2.70;99.90
52669;DHT22;59898;52.786;6.892;2022-11-21T15:12:01;4.30;99.90
52669;DHT22;59898;52.786;6.892;2022-11-21T15:15:32;2.80;99.90
52669;DHT22;59898;52.786;6.892;2022-11-21T15:18:54;3.20;99.90
52669;DHT22;59898;52.786;6.892;2022-11-21T15:22:25;3.20;99.90
52669;DHT22;59898;52.786;6.892;2022-11-21T15:25:47;2.90;99.90
52669;DHT22;59898;52.786;6.892;2022-11-21T15:29:17;2.70;99.90
52669;DHT22;59898;52.786;6.892;2022-11-21T15:36:21;2.80;99.90
52669;DHT22;59898;52.786;6.892;2022-11-21T15:39:43;2.60;99.90
52669;DHT22;59898;52.786;6.892;2022-11-21T15:43:07;2.70;99.90
52669;DHT22;59898;52.786;6.892;2022-11-21T15:46:33;3.80;99.90
52669;DHT22;59898;52.786;6.892;2022-11-21T15:49:57;3.00;99.90
52669;DHT22;59898;52.786;6.892;2022-11-21T15:53:17;2.70;99.90
52669;DHT22;59898;52.786;6.892;2022-11-21T15:56:38;2.80;99.90
52669;DHT22;59898;52.786;6.892;2022-11-21T15:59:59;2.80;99.90
52669;DHT22;59898;52.786;6.892;2022-11-21T16:03:20;2.70;99.90
52669;DHT22;59898;52.786;6.892;2022-11-21T16:06:41;3.20;99.90
52669;DHT22;59898;52.786;6.892;2022-11-21T16:10:01;2.80;99.90
52669;DHT22;59898;52.786;6.892;2022-11-21T16:13:22;2.90;99.90
52669;DHT22;59898;52.786;6.892;2022-11-21T16:16:43;3.80;99.90
52669;DHT22;59898;52.786;6.892;2022-11-21T16:20:04;2.80;99.90
52669;DHT22;59898;52.786;6.892;2022-11-21T16:23:25;2.80;99.90
52669;DHT22;59898;52.786;6.892;2022-11-21T16:26:46;2.70;99.90
52669;DHT22;59898;52.786;6.892;2022-11-21T16:30:08;3.40;99.90
52669;DHT22;59898;52.786;6.892;2022-11-21T16:33:30;2.80;99.90
52669;DHT22;59898;52.786;6.892;2022-11-21T16:36:51;2.70;99.90
52669;DHT22;59898;52.786;6.892;2022-11-21T16:40:12;3.50;99.90
52669;DHT22;59898;52.786;6.892;2022-11-21T16:43:33;2.70;99.90
52669;DHT22;59898;52.786;6.892;2022-11-21T16:46:53;3.10;99.90
52669;DHT22;59898;52.786;6.892;2022-11-21T16:50:14;2.60;99.90
52669;DHT22;59898;52.786;6.892;2022-11-21T16:53:35;2.50;99.90
52669;DHT22;59898;52.786;6.892;2022-11-21T16:56:56;3.10;99.90
52669;DHT22;59898;52.786;6.892;2022-11-21T17:00:17;3.00;99.90
52669;DHT22;59898;52.786;6.892;2022-11-21T17:03:39;2.60;99.90
52669;DHT22;59898;52.786;6.892;2022-11-21T17:07:00;2.60;99.90
52669;DHT22;59898;52.786;6.892;2022-11-21T17:10:20;2.40;99.90
52669;DHT22;59898;52.786;6.892;2022-11-21T17:13:42;2.60;99.90
52669;DHT22;59898;52.786;6.892;2022-11-21T17:17:02;2.50;99.90
52669;DHT22;59898;52.786;6.892;2022-11-21T17:20:23;2.50;99.90
52669;DHT22;59898;52.786;6.892;2022-11-21T17:23:44;2.50;99.90
52669;DHT22;59898;52.786;6.892;2022-11-21T17:27:05;3.60;99.90
52669;DHT22;59898;52.786;6.892;2022-11-21T17:30:26;3.50;99.90
52669;DHT22;59898;52.786;6.892;2022-11-21T17:33:47;2.50;99.90
52669;DHT22;59898;52.786;6.892;2022-11-21T17:37:11;2.80;99.90
52669;DHT22;59898;52.786;6.892;2022-11-21T17:40:31;2.40;99.90
52669;DHT22;59898;52.786;6.892;2022-11-21T17:43:53;2.80;99.90
52669;DHT22;59898;52.786;6.892;2022-11-21T17:47:15;2.70;99.90
52669;DHT22;59898;52.786;6.892;2022-11-21T17:50:35;2.60;99.90
52669;DHT22;59898;52.786;6.892;2022-11-21T17:53:56;2.60;99.90
52669;DHT22;59898;52.786;6.892;2022-11-21T17:57:17;2.30;99.90
52669;DHT22;59898;52.786;6.892;2022-11-21T18:00:38;2.90;99.90
52669;DHT22;59898;52.786;6.892;2022-11-21T18:04:00;2.40;99.90
52669;DHT22;59898;52.786;6.892;2022-11-21T18:07:21;2.90;99.90
52669;DHT22;59898;52.786;6.892;2022-11-21T18:10:42;3.60;99.90
52669;DHT22;59898;52.786;6.892;2022-11-21T18:14:03;2.60;99.90
52669;DHT22;59898;52.786;6.892;2022-11-21T18:17:24;2.60;99.90
52669;DHT22;59898;52.786;6.892;2022-11-21T18:20:45;2.70;99.90
52669;DHT22;59898;52.786;6.892;2022-11-21T18:24:06;2.50;99.90
52669;DHT22;59898;52.786;6.892;2022-11-21T18:27:27;2.70;99.90
52669;DHT22;59898;52.786;6.892;2022-11-21T18:30:48;3.50;99.90
52669;DHT22;59898;52.786;6.892;2022-11-21T18:34:09;2.70;99.90
52669;DHT22;59898;52.786;6.892;2022-11-21T18:37:32;2.80;99.90
52669;DHT22;59898;52.786;6.892;2022-11-21T18:40:53;3.10;99.90
52669;DHT22;59898;52.786;6.892;2022-11-21T18:44:14;3.20;99.90
52669;DHT22;59898;52.786;6.892;2022-11-21T18:47:35;3.20;99.90
52669;DHT22;59898;52.786;6.892;2022-11-21T18:51:00;2.80;99.90
52669;DHT22;59898;52.786;6.892;2022-11-21T18:54:21;3.90;99.90
52669;DHT22;59898;52.786;6.892;2022-11-21T18:57:42;2.80;99.90
52669;DHT22;59898;52.786;6.892;2022-11-21T19:01:05;2.80;99.90
52669;DHT22;59898;52.786;6.892;2022-11-21T19:04:26;2.90;99.90
52669;DHT22;59898;52.786;6.892;2022-11-21T19:07:47;2.80;99.90
52669;DHT22;59898;52.786;6.892;2022-11-21T19:11:14;2.80;99.90
52669;DHT22;59898;52.786;6.892;2022-11-21T19:14:35;2.90;99.90
52669;DHT22;59898;52.786;6.892;2022-11-21T19:17:55;2.80;99.90
52669;DHT22;59898;52.786;6.892;2022-11-21T19:21:16;2.70;99.90
52669;DHT22;59898;52.786;6.892;2022-11-21T19:24:36;2.80;99.90
52669;DHT22;59898;52.786;6.892;2022-11-21T19:27:58;3.10;99.90
52669;DHT22;59898;52.786;6.892;2022-11-21T19:31:19;2.90;99.90
52669;DHT22;59898;52.786;6.892;2022-11-21T19:34:40;2.80;99.90
52669;DHT22;59898;52.786;6.892;2022-11-21T19:38:00;4.30;99.90
52669;DHT22;59898;52.786;6.892;2022-11-21T19:41:22;2.90;99.90
52669;DHT22;59898;52.786;6.892;2022-11-21T19:44:45;2.90;99.90
52669;DHT22;59898;52.786;6.892;2022-11-21T19:48:06;2.70;99.90
52669;DHT22;59898;52.786;6.892;2022-11-21T19:51:31;2.80;99.90
52669;DHT22;59898;52.786;6.892;2022-11-21T19:54:52;3.20;99.90
52669;DHT22;59898;52.786;6.892;2022-11-21T19:58:13;3.90;99.90
52669;DHT22;59898;52.786;6.892;2022-11-21T20:01:34;3.40;99.90
52669;DHT22;59898;52.786;6.892;2022-11-21T20:04:54;2.90;99.90
52669;DHT22;59898;52.786;6.892;2022-11-21T20:08:15;3.50;99.90
52669;DHT22;59898;52.786;6.892;2022-11-21T20:11:38;3.50;99.90
52669;DHT22;59898;52.786;6.892;2022-11-21T20:14:59;2.80;99.90
52669;DHT22;59898;52.786;6.892;2022-11-21T20:18:19;3.00;99.90
52669;DHT22;59898;52.786;6.892;2022-11-21T20:21:41;2.90;99.90
52669;DHT22;59898;52.786;6.892;2022-11-21T20:25:02;3.00;99.90
52669;DHT22;59898;52.786;6.892;2022-11-21T20:28:23;2.90;99.90
52669;DHT22;59898;52.786;6.892;2022-11-21T20:31:44;3.70;99.90
52669;DHT22;59898;52.786;6.892;2022-11-21T20:35:07;2.90;99.90
52669;DHT22;59898;52.786;6.892;2022-11-21T20:38:28;3.00;99.90
52669;DHT22;59898;52.786;6.892;2022-11-21T20:41:49;3.30;99.90
52669;DHT22;59898;52.786;6.892;2022-11-21T20:45:10;2.90;99.90
52669;DHT22;59898;52.786;6.892;2022-11-21T20:48:32;2.90;99.90
52669;DHT22;59898;52.786;6.892;2022-11-21T20:51:54;3.20;99.90
52669;DHT22;59898;52.786;6.892;2022-11-21T20:55:14;3.60;99.90
52669;DHT22;59898;52.786;6.892;2022-11-21T20:58:37;2.90;99.90
52669;DHT22;59898;52.786;6.892;2022-11-21T21:01:58;4.30;99.90
52669;DHT22;59898;52.786;6.892;2022-11-21T21:05:18;3.40;99.90
52669;DHT22;59898;52.786;6.892;2022-11-21T21:08:39;2.80;99.90
52669;DHT22;59898;52.786;6.892;2022-11-21T21:12:00;2.90;99.90
52669;DHT22;59898;52.786;6.892;2022-11-21T21:15:20;2.90;99.90
52669;DHT22;59898;52.786;6.892;2022-11-21T21:18:42;3.10;99.90
52669;DHT22;59898;52.786;6.892;2022-11-21T21:22:03;2.90;99.90
52669;DHT22;59898;52.786;6.892;2022-11-21T21:25:24;3.20;99.90
52669;DHT22;59898;52.786;6.892;2022-11-21T21:28:45;3.30;99.90
52669;DHT22;59898;52.786;6.892;2022-11-21T21:32:06;2.90;99.90
52669;DHT22;59898;52.786;6.892;2022-11-21T21:35:27;3.80;99.90
52669;DHT22;59898;52.786;6.892;2022-11-21T21:38:58;4.10;99.90
52669;DHT22;59898;52.786;6.892;2022-11-21T21:42:19;3.10;99.90
52669;DHT22;59898;52.786;6.892;2022-11-21T21:45:40;4.00;99.90
52669;DHT22;59898;52.786;6.892;2022-11-21T21:49:01;2.90;99.90
52669;DHT22;59898;52.786;6.892;2022-11-21T21:52:21;2.90;99.90
52669;DHT22;59898;52.786;6.892;2022-11-21T21:55:42;3.00;99.90
52669;DHT22;59898;52.786;6.892;2022-11-21T21:59:03;3.60;99.90
52669;DHT22;59898;52.786;6.892;2022-11-21T22:02:24;2.80;99.90
52669;DHT22;59898;52.786;6.892;2022-11-21T22:05:44;3.40;99.90
52669;DHT22;59898;52.786;6.892;2022-11-21T22:09:05;3.80;99.90
52669;DHT22;59898;52.786;6.892;2022-11-21T22:12:25;3.40;99.90
52669;DHT22;59898;52.786;6.892;2022-11-21T22:15:46;2.80;99.90
52669;DHT22;59898;52.786;6.892;2022-11-21T22:19:07;3.30;99.90
52669;DHT22;59898;52.786;6.892;2022-11-21T22:22:29;2.90;99.90
52669;DHT22;59898;52.786;6.892;2022-11-21T22:25:57;2.90;99.90
52669;DHT22;59898;52.786;6.892;2022-11-21T22:29:18;2.90;99.90
52669;DHT22;59898;52.786;6.892;2022-11-21T22:32:38;2.80;99.90
52669;DHT22;59898;52.786;6.892;2022-11-21T22:36:00;2.90;99.90
52669;DHT22;59898;52.786;6.892;2022-11-21T22:39:21;2.80;99.90
52669;DHT22;59898;52.786;6.892;2022-11-21T22:42:42;3.20;99.90
52669;DHT22;59898;52.786;6.892;2022-11-21T22:46:04;2.90;99.90
52669;DHT22;59898;52.786;6.892;2022-11-21T22:49:25;2.80;99.90
52669;DHT22;59898;52.786;6.892;2022-11-21T22:52:45;3.80;99.90
52669;DHT22;59898;52.786;6.892;2022-11-21T22:56:08;2.90;99.90
52669;DHT22;59898;52.786;6.892;2022-11-21T22:59:29;2.80;99.90
52669;DHT22;59898;52.786;6.892;2022-11-21T23:02:50;2.80;99.90
52669;DHT22;59898;52.786;6.892;2022-11-21T23:06:12;2.80;99.90
52669;DHT22;59898;52.786;6.892;2022-11-21T23:09:33;2.90;99.90
52669;DHT22;59898;52.786;6.892;2022-11-21T23:12:54;2.90;99.90
52669;DHT22;59898;52.786;6.892;2022-11-21T23:16:15;2.80;99.90
52669;DHT22;59898;52.786;6.892;2022-11-21T23:19:36;2.70;99.90
52669;DHT22;59898;52.786;6.892;2022-11-21T23:22:56;3.00;99.90
52669;DHT22;59898;52.786;6.892;2022-11-21T23:26:17;3.40;99.90
52669;DHT22;59898;52.786;6.892;2022-11-21T23:29:38;2.90;99.90
52669;DHT22;59898;52.786;6.892;2022-11-21T23:32:59;3.20;99.90
52669;DHT22;59898;52.786;6.892;2022-11-21T23:36:19;3.60;99.90
52669;DHT22;59898;52.786;6.892;2022-11-21T23:39:40;3.10;99.90
52669;DHT22;59898;52.786;6.892;2022-11-21T23:43:01;2.90;99.90